createdAt,value
2023-04-29T00:01:12.550Z,18.75
2023-04-29T00:06:16.344Z,19.90
2023-04-29T00:11:21.388Z,16.58
2023-04-29T00:16:25.045Z,20.27
2023-04-29T00:21:29.294Z,20.65
2023-04-29T00:26:35.291Z,21.42
2023-04-29T00:31:39.636Z,13.45
2023-04-29T00:36:43.417Z,18.13
2023-04-29T00:41:48.455Z,18.08
2023-04-29T00:46:52.222Z,14.63
2023-04-29T00:51:57.646Z,15.55
2023-04-29T00:57:04.422Z,15.13
2023-04-29T01:02:07.986Z,18.63
2023-04-29T01:07:17.869Z,15.40
2023-04-29T01:12:36.332Z,15.27
2023-04-29T01:17:43.667Z,13.48
2023-04-29T01:22:47.509Z,15.77
2023-04-29T01:28:04.365Z,16.63
2023-04-29T01:33:16.291Z,15.55
2023-04-29T01:38:32.136Z,16.63
2023-04-29T01:43:40.150Z,14.18
2023-04-29T01:48:55.578Z,20.52
2023-04-29T01:53:59.071Z,21.95
2023-04-29T01:59:04.561Z,14.38
2023-04-29T02:04:14.423Z,19.70
2023-04-29T02:09:18.208Z,16.45
2023-04-29T02:14:29.171Z,17.88
2023-04-29T02:19:33.174Z,17.23
2023-04-29T02:24:37.059Z,18.83
2023-04-29T02:29:41.874Z,18.77
2023-04-29T02:34:46.082Z,17.70
2023-04-29T02:39:49.849Z,19.33
2023-04-29T02:44:54.546Z,18.52
2023-04-29T02:49:57.751Z,19.67
2023-04-29T02:55:00.983Z,19.40
2023-04-29T03:00:06.434Z,18.63
2023-04-29T03:05:10.222Z,22.08
2023-04-29T03:10:13.603Z,20.58
2023-04-29T03:15:20.280Z,21.70
2023-04-29T03:20:23.851Z,23.08
2023-04-29T03:25:27.100Z,23.70
2023-04-29T03:30:32.221Z,21.92
2023-04-29T03:35:36.148Z,21.98
2023-04-29T03:40:57.835Z,22.58
2023-04-29T03:46:03.009Z,22.17
2023-04-29T03:51:07.591Z,26.85
2023-04-29T03:56:11.616Z,28.23
2023-04-29T04:01:17.034Z,32.15
2023-04-29T04:06:22.425Z,29.25
2023-04-29T04:11:27.828Z,34.20
2023-04-29T04:16:36.024Z,24.80
2023-04-29T04:21:39.787Z,27.85
2023-04-29T04:26:45.650Z,27.83
2023-04-29T04:31:59.448Z,27.83
2023-04-29T04:37:02.796Z,33.05
2023-04-29T04:42:07.733Z,24.08
2023-04-29T04:47:13.564Z,23.53
2023-04-29T04:52:32.837Z,23.27
2023-04-29T04:57:45.774Z,25.67
2023-04-29T05:02:51.309Z,24.40
2023-04-29T05:13:06.382Z,22.13
2023-04-29T05:18:12.052Z,22.00
2023-04-29T05:23:17.590Z,22.92
2023-04-29T05:28:23.012Z,21.40
2023-04-29T05:33:28.877Z,18.40
2023-04-29T05:38:32.563Z,16.98
2023-04-29T05:43:41.270Z,26.33
2023-04-29T05:48:46.165Z,27.30
2023-04-29T05:53:49.460Z,26.20
2023-04-29T05:58:53.134Z,25.17
2023-04-29T06:03:58.158Z,27.38
2023-04-29T06:09:26.992Z,27.52
2023-04-29T06:14:32.622Z,30.02
2023-04-29T06:19:37.343Z,29.52
2023-04-29T06:24:40.576Z,27.33
2023-04-29T06:29:45.043Z,26.40
2023-04-29T06:34:51.357Z,20.02
2023-04-29T06:40:13.310Z,17.02
2023-04-29T06:45:36.860Z,14.13
2023-04-29T06:50:52.844Z,15.52
2023-04-29T06:55:56.544Z,14.65
2023-04-29T07:00:59.795Z,16.30
2023-04-29T07:06:04.948Z,13.40
2023-04-29T07:11:08.564Z,13.30
2023-04-29T07:16:18.503Z,12.88
2023-04-29T07:21:23.595Z,12.90
2023-04-29T07:26:27.369Z,11.55
2023-04-29T07:31:31.625Z,13.02
2023-04-29T07:36:36.771Z,11.18
2023-04-29T07:41:40.412Z,12.27
2023-04-29T07:46:44.270Z,9.85
2023-04-29T07:51:49.441Z,11.05
2023-04-29T07:56:53.214Z,12.27
2023-04-29T08:01:57.388Z,11.63
2023-04-29T08:07:05.703Z,13.77
2023-04-29T08:12:10.151Z,13.02
2023-04-29T08:17:16.998Z,15.10
2023-04-29T08:22:21.680Z,17.23
2023-04-29T08:27:25.294Z,20.10
2023-04-29T08:32:29.028Z,18.48
2023-04-29T08:37:34.023Z,19.75
2023-04-29T08:42:38.967Z,16.25
2023-04-29T08:47:43.529Z,16.63
2023-04-29T08:52:48.696Z,14.73
2023-04-29T08:57:55.897Z,15.32
2023-04-29T09:02:59.762Z,16.45
2023-04-29T09:08:06.619Z,11.82
2023-04-29T09:13:10.309Z,13.35
2023-04-29T09:18:13.537Z,12.55
2023-04-29T09:23:18.502Z,15.05
2023-04-29T09:28:23.095Z,13.17
2023-04-29T09:33:28.663Z,14.85
2023-04-29T09:38:33.580Z,17.17
2023-04-29T09:43:37.205Z,17.23
2023-04-29T09:48:40.420Z,12.45
2023-04-29T09:53:45.346Z,13.90
2023-04-29T09:58:48.999Z,13.27
2023-04-29T10:03:54.411Z,11.77
2023-04-29T10:08:59.176Z,9.35
2023-04-29T10:14:04.309Z,10.77
2023-04-29T10:19:13.199Z,10.63
2023-04-29T10:24:20.257Z,9.55
2023-04-29T10:29:24.463Z,8.23
2023-04-29T10:34:29.452Z,9.13
2023-04-29T10:39:44.026Z,10.40
2023-04-29T10:45:20.467Z,11.45
2023-04-29T10:50:24.140Z,10.48
2023-04-29T10:55:28.777Z,12.50
2023-04-29T11:00:33.464Z,11.93
2023-04-29T11:05:38.158Z,14.10
2023-04-29T11:10:44.525Z,15.93
2023-04-29T11:15:48.261Z,15.02
2023-04-29T11:21:13.952Z,15.50
2023-04-29T11:26:21.739Z,19.88
2023-04-29T11:31:30.014Z,21.92
2023-04-29T11:36:33.458Z,20.40
2023-04-29T11:41:39.710Z,21.35
2023-04-29T11:46:42.916Z,21.50
2023-04-29T11:51:46.384Z,17.10
2023-04-29T11:56:50.976Z,20.08
2023-04-29T12:01:54.309Z,23.00
2023-04-29T12:06:59.715Z,22.85
2023-04-29T12:12:05.432Z,19.25
2023-04-29T12:17:10.876Z,20.92
2023-04-29T12:22:14.483Z,17.27
2023-04-29T12:27:19.479Z,22.13
2023-04-29T12:32:24.969Z,15.15
2023-04-29T12:42:35.280Z,19.45
2023-04-29T12:47:40.865Z,15.43
2023-04-29T12:52:44.607Z,12.77
2023-04-29T12:57:49.689Z,11.73
2023-04-29T13:02:53.347Z,10.50
2023-04-29T13:07:57.022Z,11.60
2023-04-29T13:13:02.580Z,13.35
2023-04-29T13:18:06.292Z,15.82
2023-04-29T13:23:10.159Z,12.20
2023-04-29T13:28:15.105Z,14.10
2023-04-29T13:33:18.614Z,11.83
2023-04-29T13:38:23.081Z,14.07
2023-04-29T13:43:35.903Z,15.95
2023-04-29T13:59:30.486Z,13.52
2023-04-29T14:04:19.228Z,15.02
2023-04-29T14:09:22.990Z,14.30
2023-04-29T14:14:27.655Z,11.50
2023-04-29T14:19:30.889Z,12.67
2023-04-29T14:24:34.104Z,10.93
2023-04-29T14:29:38.700Z,11.95
2023-04-29T14:34:42.544Z,13.07
2023-04-29T14:39:45.720Z,12.57
2023-04-29T14:44:50.286Z,11.82
2023-04-29T14:49:53.439Z,13.50
2023-04-29T14:54:56.762Z,8.98
2023-04-29T15:00:01.552Z,9.75
2023-04-29T15:05:05.028Z,12.40
2023-04-29T15:10:09.506Z,11.15
2023-04-29T15:15:14.193Z,11.90
2023-04-29T15:20:17.807Z,7.97
2023-04-29T15:25:22.094Z,8.45
2023-04-29T15:30:29.545Z,11.13
2023-04-29T15:40:36.734Z,11.65
2023-04-29T15:45:42.542Z,9.38
2023-04-29T15:50:46.771Z,12.07
2023-04-29T15:55:50.094Z,9.05
2023-04-29T16:00:54.827Z,8.90
2023-04-29T16:05:58.254Z,10.03
2023-04-29T16:11:01.564Z,11.48
2023-04-29T16:16:06.510Z,11.70
2023-04-29T16:21:09.852Z,8.23
2023-04-29T16:26:13.691Z,10.13
2023-04-29T16:31:20.060Z,10.88
2023-04-29T16:36:23.459Z,9.07
2023-04-29T16:41:27.165Z,8.52
2023-04-29T16:46:32.578Z,9.52
2023-04-29T16:51:36.405Z,7.28
2023-04-29T16:56:40.104Z,11.40
2023-04-29T17:01:45.291Z,10.20
2023-04-29T17:06:49.106Z,8.77
2023-04-29T17:11:52.965Z,9.00
2023-04-29T17:16:58.036Z,11.10
2023-04-29T17:22:01.622Z,9.07
2023-04-29T17:27:05.961Z,12.52
2023-04-29T17:32:13.493Z,10.38
2023-04-29T17:37:18.027Z,11.63
2023-04-29T17:42:22.252Z,12.32
2023-04-29T17:47:27.375Z,10.90
2023-04-29T17:52:31.906Z,10.20
2023-04-29T17:57:35.579Z,12.27
2023-04-29T18:02:40.696Z,8.77
2023-04-29T18:07:44.552Z,10.27
2023-04-29T18:12:47.932Z,10.35
2023-04-29T18:17:54.250Z,12.32
2023-04-29T18:22:58.137Z,11.35
2023-04-29T18:28:19.367Z,12.85
2023-04-29T18:33:26.589Z,12.18
2023-04-29T18:38:29.882Z,11.45
2023-04-29T18:43:33.104Z,13.70
2023-04-29T18:48:38.999Z,14.93
2023-04-29T18:53:42.332Z,14.55
2023-04-29T18:58:45.717Z,11.63
2023-04-29T19:03:50.418Z,12.90
2023-04-29T19:08:53.598Z,13.07
2023-04-29T19:13:57.149Z,15.63
2023-04-29T19:19:01.713Z,12.20
2023-04-29T19:24:05.340Z,16.35
2023-04-29T19:29:08.616Z,14.38
2023-04-29T19:34:13.785Z,11.52
2023-04-29T19:39:18.470Z,12.87
2023-04-29T19:44:21.859Z,12.30
2023-04-29T19:49:26.576Z,10.23
2023-04-29T19:54:31.028Z,15.07
2023-04-29T19:59:34.732Z,13.68
2023-04-29T20:04:39.834Z,13.15
2023-04-29T20:09:45.063Z,17.10
2023-04-29T20:14:48.844Z,12.80
2023-04-29T20:19:54.187Z,13.40
2023-04-29T20:24:58.031Z,12.80
2023-04-29T20:30:01.861Z,11.25
2023-04-29T20:35:08.257Z,14.35
2023-04-29T20:40:12.224Z,15.40
2023-04-29T20:45:16.088Z,12.25
2023-04-29T20:50:20.933Z,11.95
2023-04-29T20:55:24.480Z,11.53
2023-04-29T21:00:27.708Z,17.00
2023-04-29T21:05:32.325Z,15.32
2023-04-29T21:10:35.698Z,17.13
2023-04-29T21:15:38.975Z,14.30
2023-04-29T21:20:43.662Z,13.27
2023-04-29T21:25:46.889Z,13.73
2023-04-29T21:30:50.203Z,21.80
2023-04-29T21:35:56.195Z,12.20
2023-04-29T21:41:01.745Z,15.25
2023-04-29T21:51:12.386Z,12.25
2023-04-29T21:56:16.073Z,13.63
2023-04-29T22:01:40.283Z,12.02
2023-04-29T22:06:45.152Z,14.93
2023-04-29T22:11:48.445Z,14.07
2023-04-29T22:16:51.773Z,14.38
2023-04-29T22:21:56.370Z,14.68
2023-04-29T22:26:59.658Z,13.60
2023-04-29T22:32:03.504Z,13.88
2023-04-29T22:37:08.468Z,14.80
2023-04-29T22:42:11.723Z,16.03
2023-04-29T22:47:15.183Z,13.70
2023-04-29T22:52:19.791Z,15.20
2023-04-29T22:57:23.523Z,11.93
2023-04-29T23:02:29.302Z,15.68
2023-04-29T23:07:34.992Z,12.60
2023-04-29T23:12:38.191Z,12.83
2023-04-29T23:17:41.408Z,11.40
2023-04-29T23:22:46.013Z,13.10
2023-04-29T23:27:49.225Z,12.70
2023-04-29T23:32:52.445Z,10.63
2023-04-29T23:37:57.148Z,13.80
2023-04-29T23:43:01.292Z,13.27
2023-04-29T23:48:05.306Z,14.98
2023-04-29T23:53:10.400Z,10.70
2023-04-29T23:58:13.645Z,11.30
